Latest Weather Observations for Kingaroy

IDQ60801

Issued at 6:32 am EST Wednesday 28 January 2015 (issued every 30 minutes, with the page automatically refreshed every 10 minutes)

About weather observations | Map of weather stations | Latest weather observations for QLD | Other Formats
Station Details ID: 040922 Name: KINGAROY AIRPORT Lat: -26.57 Lon: 151.84 Height: 433.67 m
Data from the previous 72 hours. | See also: Recent months at Kingaroy
Date/Time
EST
Temp
°C
App
Temp
°C
Dew
Point
Rel
Hum
%
Delta-T
°C
Wind Press
QNH
hPa
Press
MSL
hPa
Rain
since 9 am
mm
Dir
 
Spd
km/h
Gust
km/h
Spd
kts
Gust
kts
28/06:30am 18.5 18.5 17.3 93 0.7 ESE 13 24 7 13 1006.9 1004.3 39.6
28/06:00am 18.5 18.3 17.5 94 0.6 ESE 15 24 8 13 1006.9 1004.3 39.6
28/05:30am 18.6 18.8 17.6 94 0.6 SE 13 20 7 11 1006.6 1003.9 39.6
28/05:00am 18.8 18.8 18.0 95 0.5 SE 15 22 8 12 1006.0 1003.4 39.4
28/04:30am 18.8 17.9 17.8 94 0.6 SE 19 28 10 15 1005.9 1003.3 39.4
28/04:00am 18.7 19.2 17.5 93 0.7 ESE 11 17 6 9 1005.8 1003.2 39.2
28/03:30am 18.9 19.9 17.7 93 0.7 ENE 9 19 5 10 1006.2 1003.6 38.8
28/03:00am 19.1 19.0 17.9 93 0.8 E 15 20 8 11 1006.2 1003.6 38.2
28/02:30am 18.6 19.3 17.1 91 0.9 ENE 9 13 5 7 1006.8 1004.2 37.8
28/02:00am 19.5 21.3 18.7 95 0.5 ENE 7 11 4 6 1007.3 1004.7 36.2
28/01:30am 19.9 20.7 19.1 95 0.5 E 13 20 7 11 1007.5 1004.9 34.4
28/01:00am 20.0 21.7 19.3 96 0.5 E 9 15 5 8 1007.7 1005.1 32.0
28/12:30am 20.0 21.3 19.3 96 0.5 ESE 11 17 6 9 1008.1 1005.5 28.8
28/12:00am 20.1 20.7 19.4 96 0.5 ESE 15 22 8 12 1008.0 1005.4 23.6
 
Date/Time
EST
Temp
°C
App
Temp
°C
Dew
Point
Rel
Hum
%
Delta-T
°C
Wind Press
QNH
hPa
Press
MSL
hPa
Rain
since 9 am
mm
Dir
 
Spd
km/h
Gust
km/h
Spd
kts
Gust
kts
27/11:30pm 20.1 21.0 19.3 95 0.5 SE 13 19 7 10 1008.4 1005.8 18.6
27/11:00pm 20.9 22.6 20.1 95 0.5 SSW 11 15 6 8 1008.5 1005.9 11.6
27/10:30pm 21.1 23.7 20.1 94 0.7 N 6 7 3 4 1008.6 1006.0 6.4
27/10:00pm 21.4 24.0 20.0 92 0.9 SE 6 9 3 5 1008.4 1005.8 2.8
27/09:30pm 21.6 24.1 19.9 90 1.1 ESE 6 7 3 4 1008.2 1005.6 1.2
27/09:00pm 21.8 24.6 19.7 88 1.4 ENE 4 7 2 4 1008.1 1005.5 0.8
27/08:30pm 21.8 23.8 19.9 89 1.2 ESE 9 15 5 8 1007.7 1005.1 0.6
27/08:00pm 22.3 24.2 19.7 85 1.7 E 9 15 5 8 1007.6 1005.0 0.4
27/07:30pm 22.9 24.3 19.5 81 2.2 E 11 17 6 9 1007.1 1004.5 0.2
27/07:00pm 24.0 24.8 19.1 74 3.2 ENE 13 22 7 12 1006.4 1003.8 0.2
27/06:30pm 24.8 26.1 18.5 68 4.1 ENE 9 17 5 9 1006.3 1003.7 0.2
27/06:00pm 25.6 25.9 17.8 62 5.0 ENE 13 24 7 13 1006.0 1003.4 0.2
27/05:30pm 26.1 26.3 17.7 60 5.4 ENE 13 19 7 10 1005.7 1003.1 0.2
27/05:00pm 26.7 27.1 17.2 56 6.1 ENE 11 15 6 8 1005.3 1002.7 0.2
27/04:30pm 26.9 27.6 17.1 55 6.2 ENE 9 15 5 8 1005.1 1002.5 0.2
27/04:00pm 27.2 26.9 17.4 55 6.3 E 15 24 8 13 1004.8 1002.2 0.2
27/03:30pm 28.3 29.3 17.8 53 6.8 NE 9 15 5 8 1005.0 1002.4 0.2
27/03:00pm 29.0 29.4 17.2 49 7.6 ENE 11 19 6 10 1005.5 1002.9 0.2
27/02:30pm 30.1 31.0 18.5 49 7.6 NE 11 20 6 11 1005.6 1003.0 0.2
27/02:00pm 29.3 29.4 16.5 46 8.1 NE 11 20 6 11 1006.3 1003.7 0.2
27/01:30pm 30.8 31.4 18.5 47 8.1 NE 13 17 7 9 1006.8 1004.2 0.2
27/01:00pm 28.9 29.3 18.1 52 7.0 ENE 13 19 7 10 1007.4 1004.8 0.2
27/12:30pm 28.2 28.3 18.3 55 6.4 ENE 15 22 8 12 1007.6 1005.0 0.2
27/12:00pm 27.4 27.7 18.7 59 5.7 E 15 22 8 12 1008.1 1005.5 0.2
27/11:30am 28.8 30.0 19.1 55 6.4 NE 11 19 6 10 1008.5 1005.9 0.2
27/11:00am 27.3 27.9 19.4 62 5.2 ESE 15 24 8 13 1008.7 1006.1 0.2
27/10:30am 27.2 27.2 19.8 64 4.9 E 19 30 10 16 1009.3 1006.7 0.2
27/10:00am 26.7 26.7 19.8 66 4.6 E 19 26 10 14 1009.5 1006.9 0.2
27/09:30am 25.5 25.7 19.4 69 4.0 E 17 24 9 13 1009.9 1007.3 0.0
27/09:00am 25.4 26.2 20.6 75 3.2 ESE 17 24 9 13 1009.6 1007.0 10.0
27/08:30am 24.9 25.1 20.2 75 3.1 E 19 26 10 14 1009.5 1006.9 10.0
27/08:00am 23.7 24.5 19.8 79 2.6 E 15 20 8 11 1009.5 1006.9 10.0
27/07:30am 23.5 24.1 20.2 82 2.2 ESE 17 24 9 13 1009.5 1006.9 10.0
27/07:00am 23.0 23.9 20.1 84 1.9 E 15 22 8 12 1009.1 1006.5 10.0
27/06:30am 22.2 23.7 19.7 86 1.6 E 11 15 6 8 1008.6 1006.0 10.0
27/06:00am 21.2 23.1 19.7 91 1.0 ESE 9 13 5 7 1008.7 1006.1 10.0
27/05:30am 20.8 22.9 19.3 91 1.0 SE 7 13 4 7 1008.7 1006.1 10.0
27/05:00am 20.9 22.3 19.6 92 0.8 E 11 15 6 8 1008.3 1005.7 10.0
27/04:30am 21.2 22.7 19.8 92 0.9 ESE 11 17 6 9 1008.2 1005.6 10.0
27/04:00am 21.4 23.0 19.9 91 1.0 ESE 11 19 6 10 1008.0 1005.4 10.0
27/03:30am 21.4 23.4 20.0 92 0.9 ESE 9 15 5 8 1007.9 1005.3 10.0
27/03:00am 21.4 22.6 20.0 92 0.9 E 13 19 7 10 1007.9 1005.3 10.0
27/02:30am 21.7 22.7 20.3 92 0.9 ESE 15 22 8 12 1007.5 1004.9 10.0
27/02:00am 21.8 23.6 20.4 92 0.9 ESE 11 17 6 9 1007.9 1005.3 10.0
27/01:30am 22.0 23.9 20.6 92 0.9 E 11 17 6 9 1008.1 1005.5 10.0
27/01:00am 22.2 23.0 20.7 91 1.0 ESE 17 26 9 14 1008.1 1005.5 10.0
27/12:30am 22.3 23.6 20.8 91 1.0 ESE 15 20 8 11 1008.5 1005.9 10.0
27/12:00am 22.4 23.7 20.9 91 1.0 SE 15 22 8 12 1009.1 1006.5 10.0
 
Date/Time
EST
Temp
°C
App
Temp
°C
Dew
Point
Rel
Hum
%
Delta-T
°C
Wind Press
QNH
hPa
Press
MSL
hPa
Rain
since 9 am
mm
Dir
 
Spd
km/h
Gust
km/h
Spd
kts
Gust
kts
26/11:30pm 22.7 24.6 21.3 92 0.9 ESE 13 24 7 13 1009.6 1007.0 10.0
26/11:00pm 22.8 24.7 21.4 92 0.9 ESE 13 19 7 10 1009.5 1006.9 10.0
26/10:30pm 23.1 25.5 21.5 91 1.1 E 11 17 6 9 1010.3 1007.7 10.0
26/10:00pm 23.3 26.1 21.6 90 1.1 ENE 9 17 5 9 1010.6 1008.0 10.0
26/09:30pm 23.3 25.0 21.7 91 1.1 ESE 15 20 8 11 1010.4 1007.8 10.0
26/09:00pm 23.6 26.2 21.9 90 1.1 SE 11 17 6 9 1010.4 1007.8 10.0
26/08:30pm 23.8 25.6 21.9 89 1.3 SE 15 26 8 14 1009.4 1006.8 10.0
26/08:00pm 23.9 24.7 21.8 88 1.4 SE 20 32 11 17 1009.3 1006.7 9.8
26/07:30pm 24.1 26.4 22.0 88 1.4 SE 13 22 7 12 1009.4 1006.8 9.8
26/07:00pm 23.6 24.9 21.7 89 1.3 SSE 17 20 9 11 1008.7 1006.1 9.8
26/06:30pm 23.5 24.8 20.8 85 1.8 ESE 15 22 8 12 1008.0 1005.4 9.8
26/06:00pm 23.6 25.7 20.9 85 1.8 ESE 11 17 6 9 1007.9 1005.3 9.8
26/05:30pm 23.7 25.8 21.0 85 1.8 SE 11 17 6 9 1007.1 1004.5 9.8
26/05:00pm 23.2 26.0 21.5 90 1.1 ESE 9 13 5 7 1007.2 1004.6 9.8
26/04:30pm 22.5 25.4 21.1 92 0.9 NNE 7 13 4 7 1007.3 1004.7 9.6
26/04:00pm 23.1 25.5 20.8 87 1.5 WNW 9 15 5 8 1007.7 1005.1 5.0
26/03:30pm 24.1 24.4 20.4 80 2.4 SE 19 32 10 17 1007.1 1004.5 1.0
26/03:00pm 27.2 27.5 20.3 66 4.6 E 19 30 10 16 1006.8 1004.2 0.0
26/02:30pm 28.3 28.7 19.8 60 5.6 ENE 17 26 9 14 1006.6 1003.9 0.0
26/02:00pm 30.8 30.8 20.1 53 7.2 NE 20 33 11 18 1006.3 1003.7 0.0
26/01:30pm 29.0 30.3 20.2 59 5.9 ENE 13 24 7 13 1006.6 1003.9 0.0
26/01:00pm 30.1 30.5 19.8 54 6.9 ENE 17 28 9 15 1006.8 1004.2 0.0
26/12:30pm 33.3 34.4 17.9 40 10.1 SSE 9 15 5 8 1007.0 1004.4 0.0
26/12:00pm 34.0 35.4 20.4 45 9.3 ESE 13 17 7 9 1007.2 1004.6 0.0
26/11:30am 32.9 34.2 20.1 47 8.6 E 13 20 7 11 1007.6 1005.0 0.0
26/11:00am 32.7 35.7 21.9 53 7.5 E 9 13 5 7 1008.1 1005.5 0.0
26/10:30am 31.6 35.0 22.0 56 6.6 ENE 7 11 4 6 1008.4 1005.8 0.0
26/10:00am 31.0 34.4 22.0 58 6.2 E 7 13 4 7 1008.6 1006.0 0.0
26/09:30am 30.3 33.9 23.0 65 5.1 ESE 9 15 5 8 1008.9 1006.4 0.0
26/09:00am 29.6 33.1 22.1 64 5.2 E 7 11 4 6 1009.1 1006.5 0.0
26/08:30am 28.4 31.5 21.4 66 4.7 S 7 11 4 6 1008.9 1006.4 0.0
26/08:00am 27.9 31.2 21.9 70 4.1 SE 7 11 4 6 1009.1 1006.5 0.0
26/07:30am 26.5 30.0 21.9 76 3.1 S 6 7 3 4 1009.1 1006.5 0.0
26/07:00am 25.8 29.1 21.9 79 2.6 ESE 7 9 4 5 1009.1 1006.5 0.0
26/06:30am 23.7 27.9 21.8 89 1.3 ESE 2 6 1 3 1008.8 1006.3 0.0
26/06:00am 21.4 25.4 20.6 95 0.5 CALM 0 0 0 0 1008.6 1006.0 0.0
26/05:30am 20.7 23.0 19.9 95 0.5 E 7 9 4 5 1008.0 1005.4 0.0
26/05:00am 21.1 25.0 20.3 95 0.5 CALM 0 0 0 0 1007.9 1005.3 0.0
26/04:30am 21.1 24.8 19.9 93 0.8 CALM 0 0 0 0 1007.7 1005.1 0.0
26/04:00am 21.6 25.1 20.4 93 0.8 SSE 2 6 1 3 1007.6 1005.0 0.0
26/03:30am 21.7 25.2 20.3 92 0.9 ESE 2 7 1 4 1007.7 1005.1 0.0
26/03:00am 21.9 24.7 20.4 91 1.0 SE 6 9 3 5 1007.7 1005.1 0.0
26/02:30am 22.2 26.3 20.7 91 1.0 CALM 0 0 0 0 1007.6 1005.0 0.0
26/02:00am 22.6 25.5 20.7 89 1.3 E 6 7 3 4 1007.9 1005.3 0.0
26/01:30am 22.9 27.2 21.2 90 1.1 CALM 0 0 0 0 1008.1 1005.5 0.0
26/01:00am 23.1 27.4 21.2 89 1.3 CALM 0 6 0 3 1008.3 1005.7 0.0
26/12:30am 23.8 28.3 21.5 87 1.5 CALM 0 0 0 0 1008.4 1005.8 0.0
26/12:00am 24.3 28.0 21.4 84 1.9 ENE 4 9 2 5 1008.5 1005.9 0.0
 
Date/Time
EST
Temp
°C
App
Temp
°C
Dew
Point
Rel
Hum
%
Delta-T
°C
Wind Press
QNH
hPa
Press
MSL
hPa
Rain
since 9 am
mm
Dir
 
Spd
km/h
Gust
km/h
Spd
kts
Gust
kts
25/11:30pm 24.5 29.0 22.2 87 1.6 NE 2 6 1 3 1008.6 1006.0 0.0
25/11:00pm 25.1 30.2 22.6 86 1.7 CALM 0 0 0 0 1008.3 1005.7 0.0
25/10:30pm 25.1 28.9 22.8 87 1.6 N 7 9 4 5 1008.3 1005.7 0.0
25/10:00pm 26.3 30.4 23.0 82 2.3 NE 6 7 3 4 1008.0 1005.4 0.0
25/09:30pm 26.8 30.8 23.1 80 2.6 N 7 11 4 6 1008.2 1005.6 0.0
25/09:00pm 27.2 30.7 22.8 77 3.0 ENE 9 17 5 9 1007.7 1005.1 0.0
25/08:30pm 28.2 30.5 22.0 69 4.2 ENE 13 22 7 12 1007.5 1004.9 0.0
25/08:00pm 26.8 29.0 21.1 71 3.8 E 11 13 6 7 1007.3 1004.7 0.0
25/07:30pm 28.1 29.6 20.6 63 5.0 E 13 15 7 8 1006.8 1004.2 0.0
25/07:00pm 29.5 31.0 19.8 56 6.5 E 11 17 6 9 1006.7 1004.0 0.0
25/06:30pm 31.5 33.5 19.2 48 8.2 SSE 7 9 4 5 1005.9 1003.3 0.0
25/06:00pm 32.9 32.8 17.9 41 9.8 S 15 19 8 10 1005.4 1002.8 0.0
25/05:30pm 33.6 33.4 17.7 38 10.4 SSE 15 20 8 11 1005.2 1002.6 0.0
25/05:00pm 33.9 33.5 17.2 37 10.9 S 15 24 8 13 1004.8 1002.2 0.0
25/04:30pm 34.4 33.5 15.8 33 11.9 SSW 15 24 8 13 1004.7 1002.1 0.0
25/04:00pm 33.6 32.0 16.5 36 11.0 SSW 20 28 11 15 1005.0 1002.4 0.0
25/03:30pm 34.8 34.6 16.6 33 11.8 SW 13 24 7 13 1005.3 1002.7 0.0
25/03:00pm 34.5 34.1 18.1 37 10.8 SSW 17 28 9 15 1005.6 1003.0 0.0
25/02:30pm 33.7 33.4 18.2 39 10.2 WSW 17 24 9 13 1005.8 1003.2 0.0
25/02:00pm 33.2 33.5 17.8 40 10.1 W 13 19 7 10 1006.1 1003.5 0.0
25/01:30pm 32.7 33.6 19.2 44 9.0 SW 13 19 7 10 1006.2 1003.6 0.0
25/01:00pm 33.5 34.3 20.6 46 8.8 WSW 17 24 9 13 1006.6 1003.9 0.0
25/12:30pm 31.8 34.0 20.4 51 7.7 W 9 17 5 9 1006.9 1004.3 0.0
25/12:00pm 32.0 33.2 19.9 48 8.1 WNW 13 20 7 11 1007.3 1004.7 0.0
25/11:30am 31.1 32.9 20.4 53 7.2 WNW 11 20 6 11 1007.7 1005.1 0.0
25/11:00am 30.3 32.5 21.1 58 6.3 WNW 11 17 6 9 1008.2 1005.6 0.0
25/10:30am 29.7 32.1 22.2 64 5.2 NW 13 19 7 10 1008.4 1005.8 0.0
25/10:00am 28.8 31.5 22.8 70 4.2 NNW 13 20 7 11 1008.8 1006.3 0.0
25/09:30am 27.7 30.1 22.2 72 3.8 NW 13 19 7 10 1009.1 1006.5 0.0
25/09:00am 26.5 28.9 22.3 78 2.9 WNW 13 17 7 9 1009.4 1006.8 1.0
25/08:30am 25.4 27.0 21.5 79 2.6 NW 15 19 8 10 1009.8 1007.2 1.0
25/08:00am 24.7 26.9 21.8 84 2.0 NNW 13 17 7 9 1009.9 1007.3 1.0
25/07:30am 23.7 25.2 21.2 86 1.7 NW 15 19 8 10 1009.9 1007.3 1.0
25/07:00am 23.5 25.7 21.2 87 1.5 NNW 11 15 6 8 1009.7 1007.1 1.0

Other Formats:

Comma delimited format used in spreadsheet applications
http://www.bom.gov.au/fwo/IDQ60801/IDQ60801.94549.axf

JavaScript Object Notation format (JSON) in row-major order
http://www.bom.gov.au/fwo/IDQ60801/IDQ60801.94549.json